Time;durP1;ratioP1;P1;durP2;ratioP2;P2;SDS_P1;SDS_P2;PMS_P1;PMS_P2;Temp;Humidity;BMP_temperature;BMP_pressure;BME280_temperature;BME280_humidity;BME280_pressure;Samples;Min_cycle;Max_cycle;Signal;HPM_P1;HPM_P2
2021/12/23 00:01:37;;;;;;;;;15.25;14.75;;;;;20.91;25.98;101164.69;5057838;28;46392;-50
2021/12/23 00:04:02;;;;;;;;;19.50;18.25;;;;;20.92;26.47;101158.50;5057761;28;45235;-52
2021/12/23 00:06:28;;;;;;;;;18.25;17.25;;;;;20.94;26.40;101153.19;5057593;28;45296;-50
2021/12/23 00:08:54;;;;;;;;;18.25;16.25;;;;;20.94;26.56;101151.38;5057660;28;45656;-53
2021/12/23 00:11:19;;;;;;;;;18.50;17.00;;;;;20.96;26.50;101157.44;5057321;28;46019;-47
2021/12/23 00:13:51;;;;;;;;;18.75;15.50;;;;;20.96;26.04;101149.53;5057109;28;45348;-49
2021/12/23 00:16:19;;;;;;;;;20.00;18.00;;;;;20.97;26.59;101145.09;5057345;28;45351;-48
2021/12/23 00:18:56;;;;;;;;;20.50;18.00;;;;;20.98;26.61;101134.47;5057481;28;45336;-48
2021/12/23 00:24:06;;;;;;;;;18.50;18.00;;;;;21.00;26.14;101121.22;5057519;28;45859;-45
2021/12/23 00:26:32;;;;;;;;;17.00;17.00;;;;;21.01;26.57;101122.94;5057418;28;45373;-45
2021/12/23 00:28:57;;;;;;;;;17.75;17.50;;;;;21.01;26.50;101122.94;5039531;28;45334;-53
2021/12/23 00:31:23;;;;;;;;;19.50;17.25;;;;;21.03;26.17;101117.56;5057120;28;46695;-48
2021/12/23 00:33:48;;;;;;;;;20.00;15.25;;;;;21.02;26.32;101127.25;5057332;28;45327;-51
2021/12/23 00:36:14;;;;;;;;;17.50;14.50;;;;;21.01;26.57;101123.75;5057152;28;45281;-52
2021/12/23 00:38:52;;;;;;;;;14.00;11.75;;;;;21.05;26.36;101118.34;5057302;28;45265;-52
2021/12/23 00:41:19;;;;;;;;;18.50;14.75;;;;;21.05;26.38;101113.06;5056928;28;46145;-51
2021/12/23 00:43:44;;;;;;;;;17.75;17.25;;;;;21.06;26.45;101114.78;5056865;28;45330;-49
2021/12/23 00:46:10;;;;;;;;;13.75;13.50;;;;;21.07;26.18;101108.56;5057080;28;45759;-51
2021/12/23 00:48:35;;;;;;;;;18.25;17.00;;;;;21.06;25.98;101118.25;5057335;28;45363;-52
2021/12/23 00:51:02;;;;;;;;;19.25;17.75;;;;;21.07;26.32;101103.31;5056710;28;45342;-48
2021/12/23 00:53:35;;;;;;;;;17.00;15.00;;;;;21.08;26.06;101102.38;5038622;28;46102;-53
2021/12/23 00:56:00;;;;;;;;;17.75;15.25;;;;;21.08;26.19;101091.84;5056937;28;45326;-51
2021/12/23 00:58:25;;;;;;;;;19.25;14.25;;;;;21.10;26.35;101087.34;5056895;28;45411;-52
2021/12/23 01:00:51;;;;;;;;;17.00;15.50;;;;;21.10;26.37;101092.59;5056595;28;46315;-52
2021/12/23 01:03:17;;;;;;;;;19.75;15.25;;;;;21.11;26.19;101094.31;5056093;28;45390;-48
2021/12/23 01:05:42;;;;;;;;;15.00;13.75;;;;;21.10;26.45;101092.59;5056818;28;45442;-50
2021/12/23 01:08:08;;;;;;;;;17.75;15.50;;;;;21.12;26.63;101085.44;5057065;28;45344;-54
2021/12/23 01:10:34;;;;;;;;;18.00;15.25;;;;;21.11;26.35;101070.59;5056552;28;45403;-55
2021/12/23 01:13:03;;;;;;;;;19.50;15.75;;;;;21.12;26.10;101074.91;5056596;28;45823;-56
2021/12/23 01:18:07;;;;;;;;;19.75;12.25;;;;;21.14;26.20;101078.31;5056696;28;45566;-54
2021/12/23 01:20:36;;;;;;;;;22.25;17.00;;;;;21.13;26.66;101076.59;5056044;28;46281;-55
2021/12/23 01:23:02;;;;;;;;;19.50;16.50;;;;;21.13;26.46;101080.09;5038331;28;45829;-55
2021/12/23 01:25:28;;;;;;;;;5.00;5.00;;;;;21.15;26.04;101085.28;5055833;28;45367;-54
2021/12/23 01:27:54;;;;;;;;;18.75;16.25;;;;;21.14;26.27;101070.41;5056557;28;45333;-54
2021/12/23 01:30:20;;;;;;;;;17.25;16.75;;;;;21.15;26.13;101059.78;5056190;28;46242;-50
2021/12/23 01:32:47;;;;;;;;;16.50;15.25;;;;;21.14;26.07;101062.50;5056226;28;45409;-49
2021/12/23 01:35:14;;;;;;;;;15.25;14.25;;;;;21.16;26.35;101063.28;5056355;28;45313;-51
2021/12/23 01:37:40;;;;;;;;;17.25;16.25;;;;;21.15;26.04;101062.44;5056705;28;45524;-51
2021/12/23 01:40:07;;;;;;;;;14.25;13.50;;;;;21.17;26.73;101057.06;5056026;28;45550;-55
2021/12/23 01:42:33;;;;;;;;;16.25;13.25;;;;;21.17;26.42;101057.91;5056152;28;45243;-55
2021/12/23 01:44:58;;;;;;;;;20.25;16.75;;;;;21.17;26.72;101063.16;5056130;28;45492;-47
2021/12/23 01:47:24;;;;;;;;;15.75;15.00;;;;;21.17;26.28;101065.81;5056369;28;45583;-49
2021/12/23 01:49:50;;;;;;;;;16.75;16.50;;;;;21.18;26.52;101061.41;5037853;28;47955;-52
2021/12/23 01:52:15;;;;;;;;;12.00;12.00;;;;;21.19;26.51;101046.44;5038017;28;45935;-46
2021/12/23 01:54:41;;;;;;;;;21.25;16.75;;;;;21.19;26.35;101051.69;5056398;28;45439;-53
2021/12/23 01:57:07;;;;;;;;;15.75;15.75;;;;;21.20;26.65;101046.34;5056241;28;45655;-51
2021/12/23 01:59:33;;;;;;;;;19.00;17.75;;;;;21.21;26.14;101042.78;5055673;28;46512;-48
2021/12/23 02:01:59;;;;;;;;;18.25;13.75;;;;;21.21;26.60;101036.66;5056059;28;45385;-48
2021/12/23 02:04:24;;;;;;;;;16.75;13.25;;;;;21.22;26.09;101044.47;5056092;28;45305;-45
2021/12/23 02:06:50;;;;;;;;;17.00;15.00;;;;;21.22;26.53;101033.09;5037917;28;45568;-54
2021/12/23 02:09:15;;;;;;;;;17.50;15.00;;;;;21.21;26.26;101031.38;5055656;28;45634;-49
2021/12/23 02:11:41;;;;;;;;;21.50;19.50;;;;;21.23;26.43;101033.00;5038142;28;45262;-50
2021/12/23 02:14:06;;;;;;;;;16.25;16.25;;;;;21.22;26.63;101033.91;5055858;28;45222;-51
2021/12/23 02:16:31;;;;;;;;;15.25;14.75;;;;;21.24;26.15;101032.06;5056060;28;45178;-51
2021/12/23 02:18:57;;;;;;;;;18.25;14.25;;;;;21.24;26.66;101037.31;5055668;28;46177;-49
2021/12/23 02:21:22;;;;;;;;;19.25;16.50;;;;;21.24;26.40;101037.31;5055776;28;45310;-50
2021/12/23 02:23:48;;;;;;;;;22.50;18.00;;;;;21.26;26.16;101043.38;5055889;28;45312;-47
2021/12/23 02:26:14;;;;;;;;;18.75;17.00;;;;;21.26;26.58;101038.09;5055996;28;45599;-48
2021/12/23 02:28:39;;;;;;;;;16.25;15.25;;;;;21.26;26.32;101034.63;5055783;28;45809;-51
2021/12/23 02:31:05;;;;;;;;;18.00;16.25;;;;;21.27;26.70;101031.06;5055586;28;45315;-51
2021/12/23 02:33:30;;;;;;;;;19.25;15.00;;;;;21.27;26.57;101021.34;5055720;28;45315;-52
2021/12/23 02:35:58;;;;;;;;;14.25;14.00;;;;;21.27;26.11;101017.88;5057648;28;45984;-52
2021/12/23 02:38:24;;;;;;;;;16.25;16.25;;;;;21.27;26.56;101018.72;5058833;28;46621;-51
2021/12/23 02:40:50;;;;;;;;;19.25;15.25;;;;;21.27;26.59;101016.06;5058802;28;45829;-50
2021/12/23 02:43:20;;;;;;;;;18.00;14.50;;;;;21.28;26.48;101017.78;5058959;28;45269;-50
2021/12/23 02:45:48;;;;;;;;;14.25;13.00;;;;;21.29;26.51;101024.75;5059117;28;45323;-53
2021/12/23 02:48:17;;;;;;;;;18.75;16.25;;;;;21.29;26.46;101013.34;5059048;28;45488;-54
2021/12/23 02:50:48;;;;;;;;;18.00;16.00;;;;;21.30;26.57;101015.06;5059105;28;45779;-54
2021/12/23 02:53:14;;;;;;;;;18.25;17.25;;;;;21.29;26.63;101006.31;5059198;28;45455;-53
2021/12/23 02:55:39;;;;;;;;;17.25;16.50;;;;;21.30;26.74;101009.78;5059004;28;45600;-54
2021/12/23 02:58:05;;;;;;;;;17.50;16.50;;;;;21.30;26.69;101015.91;5058529;28;45721;-54
2021/12/23 03:00:32;;;;;;;;;18.00;15.50;;;;;21.30;26.79;101010.66;5058510;28;45237;-52
2021/12/23 03:02:57;;;;;;;;;21.75;16.50;;;;;21.32;26.35;101015.81;5058622;28;45248;-53
2021/12/23 03:05:23;;;;;;;;;19.25;16.25;;;;;21.33;26.58;101014.06;5058746;28;45612;-55
2021/12/23 03:07:49;;;;;;;;;19.75;17.00;;;;;21.31;26.42;101006.22;5058196;28;45362;-54
2021/12/23 03:10:14;;;;;;;;;19.25;16.00;;;;;21.32;26.22;101000.00;5058814;28;45395;-53
2021/12/23 03:12:40;;;;;;;;;17.75;14.50;;;;;21.33;26.55;101003.50;5058521;28;45492;-55
2021/12/23 03:15:06;;;;;;;;;20.75;17.00;;;;;21.34;26.73;100999.91;5058813;28;45295;-56
2021/12/23 03:17:31;;;;;;;;;16.50;16.00;;;;;21.31;26.63;100991.25;5058273;28;45380;-54
2021/12/23 03:19:57;;;;;;;;;19.00;16.00;;;;;21.34;26.43;100999.91;5058214;28;45262;-54
2021/12/23 03:22:22;;;;;;;;;13.50;12.75;;;;;21.34;26.44;100989.34;5040382;28;45449;-53
2021/12/23 03:24:48;;;;;;;;;20.00;19.00;;;;;21.34;26.44;100989.34;5058383;28;45402;-53
2021/12/23 03:27:13;;;;;;;;;19.50;18.00;;;;;21.33;26.72;100985.88;5058441;28;46042;-56
2021/12/23 03:29:39;;;;;;;;;19.50;17.50;;;;;21.33;26.76;100987.69;5058178;28;45439;-56
2021/12/23 03:32:05;;;;;;;;;19.25;16.50;;;;;21.33;26.32;100979.78;5058194;28;45228;-55
2021/12/23 03:34:30;;;;;;;;;18.75;17.25;;;;;21.31;26.54;100975.44;5058414;28;45347;-54
2021/12/23 03:36:56;;;;;;;;;18.50;17.75;;;;;21.32;26.64;100971.00;5057784;28;46877;-56
2021/12/23 03:39:21;;;;;;;;;16.50;15.00;;;;;21.31;26.25;100979.84;5057727;28;45296;-54
2021/12/23 03:41:48;;;;;;;;;16.75;14.50;;;;;21.30;26.62;100978.16;5058303;28;45360;-54
2021/12/23 03:44:14;;;;;;;;;20.50;19.25;;;;;21.27;26.89;100960.72;5058462;28;45249;-55
2021/12/23 03:46:40;;;;;;;;;18.25;17.25;;;;;21.28;26.76;100964.19;5057313;28;45461;-54
2021/12/23 03:49:06;;;;;;;;;15.00;13.50;;;;;21.25;26.21;100959.94;5057866;28;45353;-54
2021/12/23 03:51:32;;;;;;;;;18.75;13.00;;;;;21.24;26.83;100952.16;5057939;28;45420;-55
2021/12/23 03:53:59;;;;;;;;;16.75;14.75;;;;;21.23;26.95;100956.53;5058106;28;45320;-54
2021/12/23 03:56:24;;;;;;;;;15.50;15.50;;;;;21.22;26.85;100954.00;5057687;28;46271;-53
2021/12/23 03:58:50;;;;;;;;;21.50;16.50;;;;;21.20;26.65;100953.25;5057832;28;45270;-53
2021/12/23 04:01:16;;;;;;;;;19.00;16.25;;;;;21.17;26.73;100949.00;5058186;28;45258;-55
2021/12/23 04:03:41;;;;;;;;;18.00;16.50;;;;;21.15;26.37;100948.22;5057983;28;45685;-55
2021/12/23 04:06:07;;;;;;;;;20.50;17.50;;;;;21.12;26.80;100943.13;5057644;28;45301;-53
2021/12/23 04:08:32;;;;;;;;;19.00;16.00;;;;;21.10;26.55;100939.75;5057438;28;45372;-55
2021/12/23 04:10:59;;;;;;;;;18.00;18.00;;;;;21.09;26.41;100943.31;5057632;28;45347;-54
2021/12/23 04:13:26;;;;;;;;;17.00;16.25;;;;;21.05;26.56;100936.50;5057791;28;45530;-53
2021/12/23 04:15:51;;;;;;;;;18.00;16.25;;;;;21.04;26.53;100935.66;5057357;28;45543;-54
2021/12/23 04:18:17;;;;;;;;;17.00;15.50;;;;;21.01;26.71;100931.41;5057726;28;45323;-56
2021/12/23 04:20:53;;;;;;;;;22.50;19.00;;;;;20.98;26.68;100926.31;5039262;28;45499;-53
2021/12/23 04:23:20;;;;;;;;;19.00;18.75;;;;;20.96;26.40;100917.66;5057777;28;45360;-53
2021/12/23 04:25:45;;;;;;;;;17.75;15.25;;;;;20.94;26.95;100919.50;5039029;28;47843;-55
2021/12/23 04:28:10;;;;;;;;;22.75;17.50;;;;;20.92;26.51;100912.63;5057292;28;45345;-54
2021/12/23 04:30:36;;;;;;;;;16.25;16.25;;;;;20.89;26.55;100916.28;5039348;28;45395;-54
2021/12/23 04:33:01;;;;;;;;;19.75;17.00;;;;;20.87;26.74;100920.81;5057515;28;45343;-55
2021/12/23 04:35:27;;;;;;;;;17.50;15.50;;;;;20.83;27.03;100916.63;5056994;28;46287;-55
2021/12/23 04:37:52;;;;;;;;;18.75;16.75;;;;;20.81;26.87;100913.22;5056979;28;45463;-55
2021/12/23 04:40:18;;;;;;;;;22.00;17.25;;;;;20.78;26.58;100897.59;5057582;28;45152;-55
2021/12/23 04:42:44;;;;;;;;;19.00;15.00;;;;;20.76;27.18;100904.75;5057222;28;45199;-55
2021/12/23 04:45:10;;;;;;;;;17.50;16.25;;;;;20.70;26.88;100890.09;5056940;28;45464;-54
2021/12/23 04:47:36;;;;;;;;;17.50;16.25;;;;;20.69;26.63;100891.03;5056940;28;45249;-55
2021/12/23 04:50:03;;;;;;;;;22.25;19.00;;;;;20.66;26.71;100902.59;5056954;28;45476;-54
2021/12/23 04:52:28;;;;;;;;;19.25;16.00;;;;;20.63;26.86;100897.47;5056954;28;45248;-54
2021/12/23 04:54:54;;;;;;;;;17.50;17.50;;;;;20.61;26.66;100899.34;5056527;28;45556;-55
2021/12/23 04:57:19;;;;;;;;;20.25;20.25;;;;;20.55;27.15;100889.16;5057106;28;45261;-54
2021/12/23 04:59:45;;;;;;;;;20.75;17.50;;;;;20.54;27.14;100900.63;5055838;28;45208;-54
2021/12/23 05:02:10;;;;;;;;;20.75;18.50;;;;;20.53;27.41;100893.66;5056920;28;45195;-55
2021/12/23 05:04:35;;;;;;;;;21.50;19.75;;;;;20.49;26.76;100881.56;5056694;28;46121;-51
2021/12/23 05:07:01;;;;;;;;;21.75;18.00;;;;;20.43;27.30;100882.75;5056479;28;45579;-50
2021/12/23 05:09:26;;;;;;;;;20.25;20.25;;;;;20.43;27.59;100884.56;5056712;28;45402;-48
2021/12/23 05:11:51;;;;;;;;;27.50;17.50;;;;;20.43;27.45;100889.81;5057024;28;45552;-47
2021/12/23 05:14:17;;;;;;;;;19.00;15.50;;;;;20.40;27.30;100890.81;5056745;28;46474;-50
2021/12/23 05:16:42;;;;;;;;;28.75;27.75;;;;;20.38;27.08;100892.69;5056593;28;45321;-47
2021/12/23 05:19:07;;;;;;;;;30.00;28.00;;;;;20.31;27.16;100891.31;5056624;28;45236;-53
2021/12/23 05:21:33;;;;;;;;;34.25;30.25;;;;;20.24;26.71;100885.53;5038606;28;45316;-47
2021/12/23 05:23:58;;;;;;;;;30.25;22.75;;;;;20.16;26.72;100877.19;5056290;28;45374;-50
2021/12/23 05:26:23;;;;;;;;;30.75;26.50;;;;;20.08;26.46;100870.56;5056345;28;45266;-52
2021/12/23 05:28:49;;;;;;;;;30.00;29.00;;;;;20.01;26.57;100863.91;5056801;28;45312;-51
2021/12/23 05:31:14;;;;;;;;;39.75;32.75;;;;;19.95;26.42;100858.97;5056424;28;45423;-48
2021/12/23 05:33:40;;;;;;;;;29.50;28.75;;;;;19.85;26.17;100849.84;5056260;28;45931;-48
2021/12/23 05:36:06;;;;;;;;;40.75;33.75;;;;;19.78;26.33;100850.19;5056059;28;45477;-53
2021/12/23 05:38:31;;;;;;;;;34.25;30.75;;;;;19.72;25.81;100862.78;5038237;28;45349;-55
2021/12/23 05:40:56;;;;;;;;;37.00;33.25;;;;;19.67;25.86;100851.63;5056371;28;45551;-55
2021/12/23 05:43:22;;;;;;;;;39.00;33.50;;;;;19.60;26.32;100856.38;5056313;28;45437;-50
2021/12/23 05:45:47;;;;;;;;;41.50;33.50;;;;;19.52;26.25;100851.50;5055865;28;45391;-47
2021/12/23 05:48:13;;;;;;;;;31.25;26.25;;;;;19.46;26.26;100850.03;5038179;28;45414;-52
2021/12/23 05:50:38;;;;;;;;;26.50;16.50;;;;;19.40;26.23;100845.09;5056342;28;45374;-48
2021/12/23 05:53:04;;;;;;;;;34.00;28.50;;;;;19.40;26.76;100839.81;5056132;28;45379;-51
2021/12/23 05:55:29;;;;;;;;;24.25;19.00;;;;;19.39;26.43;100845.19;5056162;28;45364;-52
2021/12/23 05:57:54;;;;;;;;;24.25;19.00;;;;;19.40;26.41;100850.34;5056013;28;45357;-47
2021/12/23 06:00:23;;;;;;;;;32.00;22.25;;;;;19.40;26.50;100842.47;5056601;28;45245;-49
2021/12/23 06:02:49;;;;;;;;;33.25;26.25;;;;;19.41;26.22;100846.78;5056150;28;46172;-49
2021/12/23 06:05:16;;;;;;;;;24.50;22.50;;;;;19.41;26.52;100845.91;5055779;28;45479;-47
2021/12/23 06:07:42;;;;;;;;;32.00;25.25;;;;;19.40;26.48;100839.81;5055885;28;45514;-49
2021/12/23 06:10:08;;;;;;;;;31.50;28.75;;;;;19.42;26.55;100837.97;5056923;28;45622;-48
2021/12/23 06:12:34;;;;;;;;;27.25;24.75;;;;;19.40;26.49;100839.00;5059333;28;46274;-45
2021/12/23 06:14:59;;;;;;;;;27.50;23.25;;;;;19.40;26.43;100842.47;5041429;28;45434;-47
2021/12/23 06:17:25;;;;;;;;;27.50;24.75;;;;;19.40;26.92;100839.00;5059762;28;45362;-47
2021/12/23 06:19:50;;;;;;;;;26.75;23.75;;;;;19.37;26.67;100845.22;5059835;28;45554;-49
2021/12/23 06:22:18;;;;;;;;;27.00;23.75;;;;;19.38;26.81;100841.69;5059153;28;46171;-49
2021/12/23 06:24:45;;;;;;;;;28.25;24.75;;;;;19.38;26.77;100840.84;5059145;28;45913;-50
2021/12/23 06:27:11;;;;;;;;;26.25;23.00;;;;;19.37;26.97;100836.50;5059169;28;45291;-47
2021/12/23 06:29:36;;;;;;;;;25.00;23.75;;;;;19.37;27.04;100839.13;5059391;28;45308;-49
2021/12/23 06:32:02;;;;;;;;;26.00;22.75;;;;;19.36;26.79;100842.69;5040895;28;45720;-48
2021/12/23 06:34:28;;;;;;;;;23.25;21.25;;;;;19.35;26.98;100849.72;5040873;28;46086;-49
2021/12/23 06:36:53;;;;;;;;;25.50;21.25;;;;;19.33;26.82;100848.97;5059407;28;45395;-45
2021/12/23 06:39:19;;;;;;;;;23.50;21.50;;;;;19.33;27.18;100859.47;5059377;28;45547;-47
2021/12/23 06:41:44;;;;;;;;;22.00;17.00;;;;;19.31;27.14;100853.44;5058859;28;45434;-49
2021/12/23 06:44:10;;;;;;;;;27.00;21.50;;;;;19.31;27.27;100856.91;5040640;28;45614;-51
2021/12/23 06:46:35;;;;;;;;;23.50;20.25;;;;;19.31;27.28;100866.56;5059041;28;45336;-53
2021/12/23 06:49:00;;;;;;;;;26.50;23.75;;;;;19.29;27.23;100855.28;5058995;28;45626;-52
2021/12/23 06:51:27;;;;;;;;;22.75;21.25;;;;;19.28;27.11;100857.06;5059016;28;46133;-50
2021/12/23 06:53:53;;;;;;;;;24.25;21.75;;;;;19.28;27.12;100851.81;5059009;28;45271;-49
2021/12/23 06:56:18;;;;;;;;;22.00;18.25;;;;;19.26;27.39;100844.91;5058734;28;45245;-50
2021/12/23 06:58:48;;;;;;;;;25.25;24.00;;;;;19.26;27.14;100847.53;5058904;28;45594;-48
2021/12/23 07:01:17;;;;;;;;;25.50;23.25;;;;;19.24;27.25;100844.13;5058406;28;47054;-47
2021/12/23 07:06:23;;;;;;;;;22.00;21.50;;;;;19.21;27.42;100846.94;5058463;28;45351;-48
2021/12/23 07:08:49;;;;;;;;;26.00;23.25;;;;;19.20;27.32;100858.38;5058565;28;45533;-51
2021/12/23 07:11:15;;;;;;;;;23.00;22.25;;;;;19.19;27.39;100857.50;5058409;28;47128;-50
2021/12/23 07:13:40;;;;;;;;;22.50;20.50;;;;;19.18;27.52;100861.09;5058328;28;45365;-50
2021/12/23 07:16:06;;;;;;;;;19.75;16.50;;;;;19.16;27.44;100852.44;5058389;28;45235;-49
2021/12/23 07:18:31;;;;;;;;;25.00;22.25;;;;;19.17;27.41;100856.75;5040446;28;45606;-49
2021/12/23 07:20:56;;;;;;;;;20.00;19.00;;;;;19.14;27.50;100855.09;5040255;28;47085;-45
2021/12/23 07:23:22;;;;;;;;;20.75;20.75;;;;;19.16;27.43;100862.94;5057459;28;45232;-50
2021/12/23 07:25:47;;;;;;;;;25.25;20.25;;;;;19.15;27.62;100864.69;5040224;28;45400;-50
2021/12/23 07:28:13;;;;;;;;;24.50;22.75;;;;;19.14;27.61;100865.63;5058402;28;45478;-47
2021/12/23 07:30:38;;;;;;;;;28.25;20.50;;;;;19.13;27.77;100873.59;5058078;28;46543;-50
2021/12/23 07:33:03;;;;;;;;;18.00;18.00;;;;;19.14;27.89;100875.28;5058088;28;45320;-44
2021/12/23 07:35:29;;;;;;;;;22.50;18.00;;;;;19.15;27.99;100872.56;5058315;28;45194;-48
2021/12/23 07:37:54;;;;;;;;;21.50;19.50;;;;;19.20;27.83;100874.13;5058554;28;45526;-53
2021/12/23 07:40:20;;;;;;;;;20.75;19.50;;;;;19.23;27.85;100868.75;5057812;28;45971;-49
2021/12/23 07:43:09;;;;;;;;;26.25;21.00;;;;;19.29;28.10;100869.25;5057885;28;45393;-52
2021/12/23 07:45:35;;;;;;;;;18.25;17.25;;;;;19.36;27.85;100875.06;5039780;28;45453;-53
2021/12/23 07:48:00;;;;;;;;;28.50;21.50;;;;;19.41;28.18;100875.69;5058125;28;45343;-50
2021/12/23 07:50:26;;;;;;;;;24.50;21.75;;;;;19.46;27.80;100875.47;5058010;28;45436;-52
2021/12/23 07:52:52;;;;;;;;;19.75;17.50;;;;;19.52;27.68;100879.56;5057853;28;45401;-49
2021/12/23 07:55:18;;;;;;;;;17.50;17.50;;;;;19.55;27.74;100882.88;5057924;28;45331;-49
2021/12/23 07:57:44;;;;;;;;;22.25;21.50;;;;;19.61;28.29;100876.47;5057796;28;45530;-52
2021/12/23 08:00:10;;;;;;;;;21.50;18.50;;;;;19.65;27.83;100875.41;5057557;28;46425;-54
2021/12/23 08:02:35;;;;;;;;;16.75;16.25;;;;;19.69;28.07;100870.81;5057598;28;45414;-50
2021/12/23 08:05:01;;;;;;;;;23.50;19.00;;;;;19.72;28.04;100871.50;5057881;28;45509;-50
2021/12/23 08:07:26;;;;;;;;;21.00;20.25;;;;;19.76;27.74;100870.44;5058096;28;45486;-51
2021/12/23 08:09:51;;;;;;;;;23.00;20.50;;;;;19.78;28.02;100868.59;5057651;28;46405;-47
2021/12/23 08:12:17;;;;;;;;;17.50;16.75;;;;;19.82;27.91;100866.66;5057497;28;45407;-52
2021/12/23 08:14:42;;;;;;;;;18.50;17.75;;;;;19.87;27.46;100871.69;5057613;28;45443;-54
2021/12/23 08:17:08;;;;;;;;;20.75;19.50;;;;;19.86;27.48;100862.94;5057783;28;45565;-54
2021/12/23 08:19:33;;;;;;;;;21.25;20.00;;;;;19.88;27.82;100866.34;5057273;28;45537;-53
2021/12/23 08:21:58;;;;;;;;;23.25;20.75;;;;;19.92;27.93;100867.03;5057622;28;45340;-52
2021/12/23 08:24:24;;;;;;;;;23.75;21.75;;;;;19.92;27.53;100864.41;5057384;28;45347;-50
2021/12/23 08:26:53;;;;;;;;;25.50;24.50;;;;;19.94;27.47;100859.91;5057444;28;45478;-50
2021/12/23 08:29:20;;;;;;;;;25.00;22.50;;;;;19.95;27.88;100866.03;5057004;28;46115;-45
2021/12/23 08:31:53;;;;;;;;;28.00;19.00;;;;;19.95;27.86;100866.88;5057104;28;45462;-49
2021/12/23 08:34:24;;;;;;;;;22.75;18.25;;;;;19.95;27.62;100861.63;5056843;28;45419;-49
2021/12/23 08:36:50;;;;;;;;;22.00;19.00;;;;;19.94;28.05;100865.16;5039200;28;45513;-50
2021/12/23 08:39:17;;;;;;;;;18.25;16.75;;;;;19.92;27.79;100856.50;5038985;28;45395;-50
2021/12/23 08:41:42;;;;;;;;;23.00;19.00;;;;;19.92;27.93;100854.75;5056389;28;45952;-48
2021/12/23 08:44:07;;;;;;;;;20.00;18.25;;;;;19.91;27.79;100860.06;5057116;28;45681;-48
2021/12/23 08:46:33;;;;;;;;;20.25;18.50;;;;;19.92;27.75;100853.88;5057125;28;45154;-50
2021/12/23 08:48:58;;;;;;;;;21.00;20.00;;;;;19.91;27.79;100847.78;5057085;28;46416;-52
2021/12/23 08:51:24;;;;;;;;;25.25;20.25;;;;;19.93;27.82;100852.94;5056728;28;45280;-54
2021/12/23 08:53:49;;;;;;;;;15.75;14.00;;;;;19.91;27.44;100850.41;5056922;28;45257;-54
2021/12/23 08:56:15;;;;;;;;;21.25;18.50;;;;;19.91;27.83;100844.28;5057039;28;45403;-52
2021/12/23 08:58:40;;;;;;;;;21.00;20.50;;;;;19.91;28.14;100844.28;5056381;28;45634;-51
2021/12/23 09:01:07;;;;;;;;;21.00;19.75;;;;;19.89;27.43;100856.69;5056508;28;45356;-55
2021/12/23 09:03:33;;;;;;;;;26.75;19.00;;;;;19.90;27.91;100853.09;5057299;28;45495;-49
2021/12/23 09:06:00;;;;;;;;;17.75;17.75;;;;;19.90;27.68;100858.34;5056828;28;45376;-48
2021/12/23 09:08:26;;;;;;;;;20.00;17.75;;;;;19.88;27.97;100844.47;5056273;28;46104;-52
2021/12/23 09:10:56;;;;;;;;;23.25;22.50;;;;;19.89;27.80;100851.44;5056348;28;45241;-51
2021/12/23 09:13:22;;;;;;;;;22.00;18.75;;;;;19.88;27.84;100854.97;5056526;28;45322;-51
2021/12/23 09:15:51;;;;;;;;;19.75;18.25;;;;;19.86;27.72;100856.84;5056757;28;45294;-52
2021/12/23 09:18:18;;;;;;;;;22.50;17.75;;;;;19.86;28.03;100862.09;5056258;28;45442;-50
2021/12/23 09:20:47;;;;;;;;;20.00;19.00;;;;;19.84;28.15;100861.28;5038356;28;45784;-53
2021/12/23 09:23:13;;;;;;;;;18.50;17.25;;;;;19.83;28.04;100863.09;5056228;28;45375;-51
2021/12/23 09:25:39;;;;;;;;;22.00;18.75;;;;;19.81;27.67;100858.81;5056540;28;45509;-49
2021/12/23 09:32:39;;;;;;;;;25.25;20.25;;;;;19.81;27.98;100853.56;5056646;28;45673;-52
2021/12/23 09:33:52;;;;;;;;;17.75;17.00;;;;;19.77;28.31;100845.84;5056364;28;45429;-50
2021/12/23 09:36:18;;;;;;;;;18.00;18.00;;;;;19.75;27.76;100844.19;5038496;28;45501;-49
2021/12/23 09:38:44;;;;;;;;;22.25;20.50;;;;;19.74;28.15;100856.50;5056076;28;46536;-47
2021/12/23 09:41:12;;;;;;;;;21.50;18.50;;;;;19.73;28.47;100848.72;5037970;28;45478;-51
2021/12/23 09:43:40;;;;;;;;;21.75;19.00;;;;;19.72;28.39;100855.72;5056258;28;45384;-48
2021/12/23 09:46:06;;;;;;;;;14.50;13.50;;;;;19.71;28.50;100859.28;5058879;28;45801;-53
2021/12/23 09:48:33;;;;;;;;;18.25;16.75;;;;;19.71;28.19;100843.50;5060016;28;45448;-52
2021/12/23 09:51:03;;;;;;;;;20.75;19.50;;;;;19.68;28.54;100843.66;5059626;28;45905;-48
2021/12/23 09:53:31;;;;;;;;;27.00;20.00;;;;;19.67;27.86;100843.75;5041767;28;45285;-47
2021/12/23 09:55:58;;;;;;;;;18.00;16.25;;;;;19.66;28.35;100844.69;5025161;28;45637;-48
2021/12/23 09:58:24;;;;;;;;;18.00;17.75;;;;;19.64;28.32;100836.88;5059454;28;45557;-51
2021/12/23 10:00:51;;;;;;;;;17.25;16.50;;;;;19.63;28.59;100840.44;5041331;28;45521;-53
2021/12/23 10:03:19;;;;;;;;;17.75;14.50;;;;;19.66;28.89;100844.69;5059803;28;45257;-52
2021/12/23 10:05:45;;;;;;;;;22.75;17.75;;;;;19.68;28.31;100843.66;5059812;28;45529;-51
2021/12/23 10:08:12;;;;;;;;;20.50;19.50;;;;;19.67;28.37;100834.09;5059252;28;46281;-49
2021/12/23 10:10:47;;;;;;;;;21.75;18.50;;;;;19.75;28.25;100836.31;5059364;28;45438;-47
2021/12/23 10:33:08;;;;;;;;;20.25;18.00;;;;;20.06;28.69;100806.66;5058985;28;45477;-47
2021/12/23 10:38:31;;;;;;;;;24.00;19.00;;;;;20.12;28.81;100799.38;5059321;28;45415;-42
2021/12/23 10:41:13;;;;;;;;;15.75;15.25;;;;;20.16;28.77;100798.25;5058765;28;45553;-47
2021/12/23 10:43:42;;;;;;;;;22.75;19.00;;;;;20.21;28.81;100798.88;5058649;28;45952;-48
2021/12/23 10:46:20;;;;;;;;;20.25;19.00;;;;;20.23;28.75;100791.72;5059249;28;45288;-48
2021/12/23 10:48:55;;;;;;;;;18.25;17.25;;;;;20.28;28.40;100792.31;5058931;28;45497;-48
2021/12/23 10:51:21;;;;;;;;;19.50;17.25;;;;;20.31;28.74;100784.25;5058552;28;46331;-46
2021/12/23 10:53:56;;;;;;;;;23.50;19.75;;;;;20.35;28.46;100782.31;5058805;28;45386;-51
2021/12/23 10:59:19;;;;;;;;;16.50;16.50;;;;;20.36;28.69;100776.94;5058641;28;45289;-46
2021/12/23 11:02:13;;;;;;;;;19.25;17.50;;;;;20.35;28.80;100777.03;5040391;28;46398;-47
2021/12/23 11:05:17;;;;;;;;;21.50;17.50;;;;;20.33;28.91;100769.25;5058694;28;45466;-48
2021/12/23 11:27:31;;;;;;;;;16.00;13.50;;;;;20.24;28.96;100751.31;5058056;28;45947;-48
2021/12/23 11:43:52;;;;;;;;;15.00;15.00;;;;;20.16;29.36;100748.25;5040815;28;45347;-51
2021/12/23 11:46:31;;;;;;;;;16.25;14.25;;;;;20.15;28.72;100736.91;5057790;28;46214;-51
2021/12/23 11:48:58;;;;;;;;;15.25;14.00;;;;;20.12;29.48;100737.06;5039743;28;45380;-48
2021/12/23 11:53:55;;;;;;;;;15.50;11.00;;;;;20.11;28.80;100730.09;5058003;28;45207;-53
2021/12/23 11:56:21;;;;;;;;;15.00;13.75;;;;;20.11;29.24;100737.16;5057655;28;46332;-52
2021/12/23 11:58:49;;;;;;;;;17.75;15.75;;;;;20.12;29.11;100738.84;5057690;28;45868;-48
2021/12/23 12:01:24;;;;;;;;;15.25;14.25;;;;;20.10;29.24;100732.81;5039583;28;45676;-52
2021/12/23 12:03:57;;;;;;;;;17.25;13.25;;;;;20.08;29.28;100730.25;5057846;28;45416;-53
2021/12/23 12:06:38;;;;;;;;;12.25;11.25;;;;;20.08;29.53;100727.63;5057494;28;46774;-50
2021/12/23 12:09:13;;;;;;;;;12.75;11.25;;;;;20.06;29.52;100719.81;5057083;28;45776;-54
2021/12/23 12:11:40;;;;;;;;;14.75;13.75;;;;;20.06;29.28;100719.00;5057888;28;45367;-52
2021/12/23 12:14:31;;;;;;;;;13.25;12.75;;;;;20.05;29.66;100715.50;5057760;28;45407;-55
2021/12/23 12:17:16;;;;;;;;;14.25;10.00;;;;;20.03;29.42;100717.34;5057533;28;46528;-55
2021/12/23 12:19:57;;;;;;;;;13.50;12.25;;;;;20.02;29.88;100705.13;5057708;28;45265;-56
2021/12/23 12:22:47;;;;;;;;;13.25;13.00;;;;;20.02;29.74;100699.03;5057535;28;45393;-54